Time;durP1;ratioP1;P1;durP2;ratioP2;P2;SDS_P1;SDS_P2;PMS_P1;PMS_P2;Temp;Humidity;BMP_temperature;BMP_pressure;BME280_temperature;BME280_humidity;BME280_pressure;Samples;Min_cycle;Max_cycle;Signal;HPM_P1;HPM_P2
2022/08/02 00:00:15;;;;;;;0.20;0.13;;;24.70;59.00;;;;;;6321032;27;20129;-41
2022/08/02 00:03:17;;;;;;;0.32;0.10;;;24.70;59.00;;;;;;6303235;27;20111;-42
2022/08/02 00:06:19;;;;;;;0.20;0.20;;;24.70;59.10;;;;;;6320447;27;20047;-41
2022/08/02 00:09:21;;;;;;;0.10;0.10;;;24.60;59.10;;;;;;6327196;27;20049;-42
2022/08/02 00:12:22;;;;;;;0.10;0.10;;;24.70;59.10;;;;;;6323073;27;20177;-40
2022/08/02 00:15:27;;;;;;;0.20;0.20;;;24.70;59.20;;;;;;6325329;27;20043;-39
2022/08/02 00:18:29;;;;;;;0.30;0.28;;;24.60;59.90;;;;;;6321950;27;20043;-40
2022/08/02 00:21:31;;;;;;;0.20;0.20;;;24.50;59.20;;;;;;6307884;27;20042;-41
2022/08/02 00:24:33;;;;;;;0.20;0.20;;;24.50;59.20;;;;;;6322747;27;20064;-40
2022/08/02 00:27:35;;;;;;;0.10;0.10;;;24.50;59.20;;;;;;6321897;27;20089;-41
2022/08/02 00:30:36;;;;;;;0.40;0.20;;;24.60;59.30;;;;;;6323518;27;20031;-42
2022/08/02 00:33:38;;;;;;;0.10;0.10;;;24.50;59.30;;;;;;6298519;27;20054;-41
2022/08/02 00:36:59;;;;;;;;;;;24.50;59.30;;;;;;6307998;27;20051;-39
2022/08/02 00:40:02;;;;;;;0.20;0.20;;;24.50;59.30;;;;;;6325140;27;20458;-40
2022/08/02 00:43:08;;;;;;;0.30;0.20;;;24.40;59.20;;;;;;6319662;27;20551;-40
2022/08/02 00:46:10;;;;;;;0.10;0.10;;;24.60;59.30;;;;;;6312994;27;20437;-40
2022/08/02 00:49:13;;;;;;;0.10;0.10;;;24.50;59.30;;;;;;6310761;27;20047;-40
2022/08/02 00:52:17;;;;;;;0.10;0.10;;;24.60;59.30;;;;;;6313729;27;20236;-40
2022/08/02 00:55:20;;;;;;;0.30;0.20;;;24.60;59.30;;;;;;6314824;27;20078;-41
2022/08/02 00:58:32;;;;;;;0.10;0.10;;;24.50;59.20;;;;;;6299481;27;20564;-39
2022/08/02 01:01:41;;;;;;;0.20;0.20;;;24.60;59.20;;;;;;6297135;27;20050;-41
2022/08/02 01:04:58;;;;;;;0.17;0.17;;;24.60;59.20;;;;;;6315331;27;20144;-41
2022/08/02 01:08:01;;;;;;;0.10;0.10;;;24.60;59.20;;;;;;6315315;27;20038;-43
2022/08/02 01:11:03;;;;;;;0.10;0.10;;;24.60;59.10;;;;;;6294705;27;20046;-40
2022/08/02 01:14:08;;;;;;;0.55;0.13;;;24.60;59.10;;;;;;6321376;27;20042;-40
2022/08/02 01:17:15;;;;;;;0.10;0.10;;;24.50;59.00;;;;;;6297561;27;20717;-40
2022/08/02 01:20:45;;;;;;;0.25;0.20;;;24.70;59.10;;;;;;6312064;27;20587;-39
2022/08/02 01:24:00;;;;;;;0.20;0.20;;;24.60;59.00;;;;;;6308548;27;20076;-40
2022/08/02 01:27:19;;;;;;;0.20;0.20;;;24.60;59.00;;;;;;6310500;27;20167;-42
2022/08/02 01:30:24;;;;;;;0.20;0.20;;;24.70;59.00;;;;;;6314463;27;20046;-40
2022/08/02 01:33:34;;;;;;;0.10;0.10;;;24.70;59.00;;;;;;6307342;27;20494;-40
2022/08/02 01:36:43;;;;;;;0.20;0.20;;;24.60;58.90;;;;;;6297137;27;21339;-42
2022/08/02 01:39:50;;;;;;;0.20;0.20;;;24.70;58.90;;;;;;6307760;27;20050;-42
2022/08/02 01:42:54;;;;;;;0.20;0.20;;;24.70;58.90;;;;;;6306477;27;20582;-41
2022/08/02 01:45:58;;;;;;;0.60;0.20;;;24.60;58.80;;;;;;6305014;27;20348;-39
2022/08/02 01:49:05;;;;;;;0.20;0.20;;;24.70;58.80;;;;;;6310683;27;20046;-41
2022/08/02 01:55:28;;;;;;;0.10;0.10;;;24.70;58.70;;;;;;6303142;27;20538;-40
2022/08/02 01:58:52;;;;;;;0.20;0.20;;;24.70;58.60;;;;;;6300974;27;20939;-40
2022/08/02 02:01:56;;;;;;;0.35;0.25;;;24.60;58.60;;;;;;6310493;27;20047;-41
2022/08/02 02:05:01;;;;;;;0.30;0.20;;;24.70;58.70;;;;;;6312347;27;20319;-42
2022/08/02 02:08:04;;;;;;;0.20;0.20;;;24.70;58.60;;;;;;6309493;27;20047;-41
2022/08/02 02:11:07;;;;;;;0.10;0.10;;;24.80;58.60;;;;;;6307516;27;20127;-39
2022/08/02 02:14:29;;;;;;;0.32;0.20;;;24.70;58.50;;;;;;6293494;27;20051;-41
2022/08/02 02:17:32;;;;;;;0.15;0.15;;;24.70;58.50;;;;;;6310904;27;20162;-39
2022/08/02 02:20:55;;;;;;;0.13;0.13;;;24.70;58.50;;;;;;6294036;27;20311;-39
2022/08/02 02:23:59;;;;;;;0.17;0.17;;;24.70;58.50;;;;;;6290652;27;20437;-40
2022/08/02 02:27:03;;;;;;;0.20;0.20;;;24.70;58.50;;;;;;6309552;27;20050;-42
2022/08/02 02:30:05;;;;;;;0.20;0.20;;;24.70;58.50;;;;;;6310874;27;20042;-40
2022/08/02 02:33:10;;;;;;;0.20;0.20;;;24.60;58.40;;;;;;6316009;27;20041;-41
2022/08/02 02:36:13;;;;;;;0.17;0.17;;;24.80;58.50;;;;;;6303202;27;20045;-41
2022/08/02 02:39:17;;;;;;;0.20;0.20;;;24.60;58.40;;;;;;6318366;27;20084;-39
2022/08/02 02:42:23;;;;;;;0.75;0.28;;;24.70;58.40;;;;;;6311289;27;20047;-41
2022/08/02 02:45:25;;;;;;;0.25;0.25;;;24.70;58.40;;;;;;6327634;27;20110;-41
2022/08/02 02:48:29;;;;;;;0.17;0.17;;;24.70;58.40;;;;;;6305535;27;20158;-40
2022/08/02 02:51:34;;;;;;;0.20;0.10;;;24.60;58.30;;;;;;6321635;27;20062;-41
2022/08/02 02:54:40;;;;;;;0.17;0.17;;;24.60;58.30;;;;;;6325818;27;20047;-41
2022/08/02 02:57:43;;;;;;;0.40;0.20;;;24.70;58.30;;;;;;6324919;27;20759;-41
2022/08/02 03:04:04;;;;;;;0.15;0.10;;;24.60;58.20;;;;;;6310519;27;20054;-41
2022/08/02 03:07:06;;;;;;;0.20;0.20;;;24.70;58.20;;;;;;6308040;27;20090;-40
2022/08/02 03:10:08;;;;;;;0.20;0.20;;;24.70;58.30;;;;;;6323240;27;20201;-40
2022/08/02 03:13:11;;;;;;;0.30;0.30;;;24.70;58.20;;;;;;6321178;27;20058;-40
2022/08/02 03:16:13;;;;;;;0.10;0.10;;;24.60;58.10;;;;;;6298192;27;20131;-40
2022/08/02 03:19:16;;;;;;;0.28;0.20;;;24.70;58.20;;;;;;6318363;27;20043;-39
2022/08/02 03:22:20;;;;;;;0.30;0.28;;;24.70;58.20;;;;;;6319722;27;20053;-40
2022/08/02 03:25:25;;;;;;;0.22;0.20;;;24.70;58.20;;;;;;6313992;27;20099;-41
2022/08/02 03:28:30;;;;;;;0.10;0.10;;;24.70;58.20;;;;;;6300794;27;20071;-41
2022/08/02 03:31:31;;;;;;;0.30;0.30;;;24.60;58.10;;;;;;6320822;27;20071;-40
2022/08/02 03:34:34;;;;;;;0.20;0.10;;;24.70;58.10;;;;;;6321318;27;20039;-39
2022/08/02 03:37:36;;;;;;;0.22;0.10;;;24.70;58.10;;;;;;6323284;27;20046;-40
2022/08/02 03:40:38;;;;;;;0.25;0.20;;;24.60;58.00;;;;;;6323187;27;20911;-39
2022/08/02 03:43:42;;;;;;;0.10;0.10;;;24.40;57.90;;;;;;6302166;27;20075;-39
2022/08/02 03:46:44;;;;;;;0.10;0.10;;;24.70;58.00;;;;;;6324316;27;20158;-39
2022/08/02 03:49:46;;;;;;;0.20;0.20;;;24.50;57.90;;;;;;6301427;27;20043;-40
2022/08/02 03:52:49;;;;;;;0.28;0.25;;;24.50;58.00;;;;;;6321461;27;20042;-40
2022/08/02 03:55:51;;;;;;;0.20;0.10;;;24.60;58.00;;;;;;6330392;27;20141;-39
2022/08/02 03:59:05;;;;;;;0.10;0.10;;;24.60;58.00;;;;;;6305568;27;20166;-41
2022/08/02 04:02:06;;;;;;;0.20;0.20;;;24.50;57.90;;;;;;6326517;27;20145;-40
2022/08/02 04:05:09;;;;;;;0.20;0.20;;;24.60;58.00;;;;;;6311653;27;20046;-40
2022/08/02 04:08:10;;;;;;;0.50;0.22;;;24.70;58.00;;;;;;6324963;27;20926;-39
2022/08/02 04:11:32;;;;;;;;;;;24.50;57.90;;;;;;6312461;27;20043;-39
2022/08/02 04:14:34;;;;;;;0.50;0.30;;;24.40;57.90;;;;;;6328753;27;20879;-40
2022/08/02 04:17:41;;;;;;;0.15;0.15;;;24.50;57.90;;;;;;6322538;27;20054;-39
2022/08/02 04:20:44;;;;;;;0.30;0.20;;;24.50;57.90;;;;;;6323227;27;20031;-41
2022/08/02 04:23:48;;;;;;;0.20;0.20;;;24.60;58.00;;;;;;6325672;27;20157;-39
2022/08/02 04:26:52;;;;;;;0.20;0.20;;;24.50;57.90;;;;;;6305335;27;20173;-39
2022/08/02 04:29:55;;;;;;;0.20;0.20;;;24.50;57.80;;;;;;6324923;27;20088;-39
2022/08/02 04:32:57;;;;;;;0.40;0.20;;;24.50;57.90;;;;;;6325369;27;20146;-41
2022/08/02 04:35:59;;;;;;;0.32;0.20;;;24.50;57.90;;;;;;6325616;27;20043;-39
2022/08/02 04:39:01;;;;;;;0.47;0.10;;;24.50;57.90;;;;;;6322671;27;20043;-41
2022/08/02 04:42:03;;;;;;;0.20;0.20;;;24.60;57.90;;;;;;6329418;27;20071;-41
2022/08/02 04:45:06;;;;;;;0.25;0.25;;;24.50;57.90;;;;;;6322624;27;20043;-40
2022/08/02 04:48:07;;;;;;;0.20;0.20;;;24.60;57.90;;;;;;6324008;27;22353;-41
2022/08/02 04:51:09;;;;;;;0.22;0.20;;;24.50;57.90;;;;;;6321607;27;20161;-39
2022/08/02 04:54:12;;;;;;;0.30;0.20;;;24.50;57.90;;;;;;6319602;27;20150;-40
2022/08/02 05:00:31;;;;;;;0.38;0.30;;;24.50;57.90;;;;;;6314984;27;20062;-41
2022/08/02 05:03:32;;;;;;;0.10;0.10;;;24.40;57.80;;;;;;6300254;27;20047;-40
2022/08/02 05:06:34;;;;;;;0.10;0.10;;;24.50;57.80;;;;;;6319606;27;20038;-39
2022/08/02 05:09:36;;;;;;;0.35;0.20;;;24.50;57.90;;;;;;6321742;27;20063;-40
2022/08/02 05:12:38;;;;;;;0.20;0.20;;;24.30;57.80;;;;;;6314816;27;20078;-40
2022/08/02 05:15:39;;;;;;;0.30;0.28;;;24.40;58.40;;;;;;6319246;27;21023;-41
2022/08/02 05:18:41;;;;;;;0.30;0.20;;;24.50;57.80;;;;;;6321087;27;20117;-40
2022/08/02 05:21:44;;;;;;;0.17;0.15;;;24.50;57.80;;;;;;6319291;27;20085;-42
2022/08/02 05:24:45;;;;;;;0.38;0.30;;;24.50;57.90;;;;;;6322078;27;20146;-40
2022/08/02 05:27:47;;;;;;;0.20;0.20;;;24.40;57.80;;;;;;6320209;27;21059;-40
2022/08/02 05:30:48;;;;;;;0.20;0.20;;;24.50;57.90;;;;;;6315018;27;20123;-43
2022/08/02 05:33:50;;;;;;;0.30;0.20;;;24.50;57.80;;;;;;6314294;27;20046;-39
2022/08/02 05:36:52;;;;;;;0.30;0.22;;;24.40;57.80;;;;;;6317287;27;20054;-39
2022/08/02 05:39:55;;;;;;;0.20;0.20;;;24.40;57.80;;;;;;6319379;27;20046;-39
2022/08/02 05:42:57;;;;;;;0.35;0.20;;;24.50;57.90;;;;;;6313607;27;20887;-39
2022/08/02 05:45:59;;;;;;;0.20;0.20;;;24.50;57.90;;;;;;6314615;27;20042;-39
2022/08/02 05:49:02;;;;;;;0.40;0.30;;;24.50;57.90;;;;;;6315731;27;20067;-39
2022/08/02 05:52:13;;;;;;;0.20;0.20;;;24.50;57.90;;;;;;6305824;27;20450;-41
2022/08/02 05:55:21;;;;;;;0.35;0.30;;;24.50;57.90;;;;;;6311258;27;20131;-41
2022/08/02 05:58:34;;;;;;;0.30;0.30;;;24.50;57.90;;;;;;6307841;27;20142;-41
2022/08/02 06:01:39;;;;;;;0.30;0.22;;;24.40;58.40;;;;;;6309489;27;20040;-39
2022/08/02 06:04:53;;;;;;;0.20;0.20;;;24.50;58.00;;;;;;6312362;27;21242;-41
2022/08/02 06:07:58;;;;;;;0.10;0.10;;;24.50;58.00;;;;;;6313616;27;20043;-39
2022/08/02 06:11:01;;;;;;;0.52;0.32;;;24.50;58.00;;;;;;6284852;27;20039;-41
2022/08/02 06:14:04;;;;;;;0.30;0.20;;;24.40;58.00;;;;;;6305993;27;20047;-43
2022/08/02 06:17:07;;;;;;;0.20;0.20;;;24.40;58.00;;;;;;6285410;27;20497;-39
2022/08/02 06:20:10;;;;;;;0.30;0.30;;;24.50;58.10;;;;;;6306806;27;20051;-41
2022/08/02 06:23:13;;;;;;;0.30;0.20;;;24.30;58.10;;;;;;6306008;27;20043;-39
2022/08/02 06:26:16;;;;;;;0.50;0.45;;;24.50;58.30;;;;;;6300694;27;20074;-41
2022/08/02 06:29:19;;;;;;;1.20;0.40;;;24.50;58.30;;;;;;6316907;27;20103;-40
2022/08/02 06:32:26;;;;;;;0.30;0.30;;;24.50;58.40;;;;;;6290425;27;20050;-41
2022/08/02 06:35:34;;;;;;;1.55;0.38;;;24.50;58.50;;;;;;6280816;27;20046;-40
2022/08/02 06:38:42;;;;;;;1.48;0.60;;;24.40;58.50;;;;;;6294762;27;20046;-39
2022/08/02 06:41:52;;;;;;;1.20;0.80;;;24.50;58.70;;;;;;6275365;27;21224;-40
2022/08/02 06:45:10;;;;;;;4.07;1.15;;;24.50;58.50;;;;;;6286604;27;20142;-41
2022/08/02 06:48:12;;;;;;;3.63;1.05;;;24.60;58.50;;;;;;6288327;27;20050;-40
2022/08/02 06:51:14;;;;;;;3.85;0.90;;;24.70;58.50;;;;;;6280403;27;22266;-40
2022/08/02 06:54:20;;;;;;;1.40;0.60;;;24.70;58.40;;;;;;6265376;27;21165;-40
2022/08/02 06:57:22;;;;;;;2.20;0.95;;;24.70;58.40;;;;;;6275831;27;20038;-41
2022/08/02 07:00:23;;;;;;;2.35;0.85;;;24.60;58.30;;;;;;6264439;27;20124;-40
2022/08/02 07:03:25;;;;;;;1.10;1.00;;;24.70;58.30;;;;;;6255754;27;21690;-39
2022/08/02 07:06:28;;;;;;;1.83;0.70;;;24.70;58.30;;;;;;6217817;27;20173;-40
2022/08/02 07:09:30;;;;;;;2.53;0.80;;;24.70;58.30;;;;;;6228637;27;20239;-41
2022/08/02 07:12:33;;;;;;;1.48;0.77;;;24.70;58.30;;;;;;6239249;27;20047;-40
2022/08/02 07:15:35;;;;;;;1.13;0.70;;;24.80;58.30;;;;;;6225353;27;21360;-41
2022/08/02 07:18:37;;;;;;;1.48;0.70;;;24.80;58.40;;;;;;6252962;27;20087;-43
2022/08/02 07:21:39;;;;;;;2.10;0.93;;;24.90;58.50;;;;;;6237089;27;20051;-41
2022/08/02 07:24:59;;;;;;;3.58;1.00;;;24.90;58.40;;;;;;6254628;27;23068;-42
2022/08/02 07:28:01;;;;;;;3.88;0.93;;;24.90;58.50;;;;;;6249404;27;21073;-43
2022/08/02 07:31:03;;;;;;;1.45;0.60;;;24.90;58.50;;;;;;6247415;27;21861;-43
2022/08/02 07:34:04;;;;;;;2.00;0.90;;;24.90;58.50;;;;;;6229130;27;20162;-45
2022/08/02 07:37:07;;;;;;;0.80;0.50;;;24.90;58.60;;;;;;6238129;27;20051;-41
2022/08/02 07:40:14;;;;;;;1.42;0.75;;;24.80;58.60;;;;;;6211672;27;20979;-39
2022/08/02 07:43:22;;;;;;;0.93;0.40;;;24.90;58.60;;;;;;6242998;27;20047;-40
2022/08/02 07:46:24;;;;;;;2.22;0.80;;;24.90;58.60;;;;;;6250264;27;20247;-43
2022/08/02 07:49:25;;;;;;;1.08;0.60;;;24.90;58.60;;;;;;6252842;27;20050;-42
2022/08/02 07:52:27;;;;;;;1.83;0.60;;;24.90;58.70;;;;;;6242212;27;20074;-40
2022/08/02 07:55:29;;;;;;;1.73;0.70;;;25.00;58.60;;;;;;6251761;27;20042;-42
2022/08/02 07:58:41;;;;;;;6.32;1.33;;;25.00;58.70;;;;;;6257686;27;20177;-42
2022/08/02 08:01:43;;;;;;;5.57;1.17;;;24.90;58.60;;;;;;6237523;27;20123;-41
2022/08/02 08:04:47;;;;;;;2.53;0.93;;;25.00;58.70;;;;;;6248641;27;20111;-42
2022/08/02 08:07:49;;;;;;;3.80;0.88;;;24.90;58.60;;;;;;6244451;27;20050;-41
2022/08/02 08:10:51;;;;;;;5.50;1.20;;;25.00;58.70;;;;;;6247962;27;20066;-43
2022/08/02 08:13:52;;;;;;;2.83;0.90;;;25.00;58.60;;;;;;6241996;27;20089;-42
2022/08/02 08:16:54;;;;;;;2.88;0.80;;;25.00;58.60;;;;;;6220391;27;20158;-41
2022/08/02 08:19:56;;;;;;;2.95;0.70;;;25.00;58.70;;;;;;6215655;27;20039;-41
2022/08/02 08:22:58;;;;;;;1.10;0.60;;;25.10;58.80;;;;;;6214819;27;20141;-40
2022/08/02 08:26:00;;;;;;;0.77;0.50;;;25.10;58.70;;;;;;6225430;27;20085;-42
2022/08/02 08:29:02;;;;;;;1.60;0.77;;;25.10;58.70;;;;;;6243653;27;21768;-39
2022/08/02 08:32:04;;;;;;;1.23;0.40;;;25.10;58.70;;;;;;6242359;27;20051;-41
2022/08/02 08:35:07;;;;;;;1.05;0.60;;;24.90;58.60;;;;;;6242890;27;20043;-41
2022/08/02 08:38:09;;;;;;;2.10;0.55;;;25.10;58.70;;;;;;6222727;27;20043;-42
2022/08/02 08:41:11;;;;;;;1.25;0.50;;;25.10;58.70;;;;;;6234187;27;20058;-43
2022/08/02 08:44:12;;;;;;;0.47;0.40;;;25.10;58.70;;;;;;6208602;27;21279;-41
2022/08/02 08:47:14;;;;;;;0.68;0.40;;;25.10;58.60;;;;;;6226602;27;20039;-40
2022/08/02 08:50:19;;;;;;;1.65;0.57;;;25.10;58.60;;;;;;6228292;27;20053;-41
2022/08/02 08:53:28;;;;;;;0.45;0.40;;;25.20;58.60;;;;;;6218077;27;20066;-42
2022/08/02 08:56:39;;;;;;;0.60;0.30;;;25.20;58.60;;;;;;6221446;27;20630;-40
2022/08/02 08:59:44;;;;;;;1.85;0.73;;;25.10;58.60;;;;;;6179283;27;20035;-42
2022/08/02 09:02:47;;;;;;;0.30;0.28;;;25.20;58.60;;;;;;6200742;27;20963;-41
2022/08/02 09:05:48;;;;;;;0.82;0.43;;;25.30;58.70;;;;;;6209328;27;20104;-41
2022/08/02 09:08:50;;;;;;;0.40;0.28;;;25.20;58.60;;;;;;6226904;27;20035;-39
2022/08/02 09:11:52;;;;;;;0.20;0.20;;;25.20;58.60;;;;;;6235135;27;21283;-41
2022/08/02 09:14:55;;;;;;;0.40;0.30;;;25.30;58.80;;;;;;6240552;27;20039;-40
2022/08/02 09:17:57;;;;;;;0.73;0.40;;;25.20;58.80;;;;;;6232219;27;20159;-42
2022/08/02 09:21:00;;;;;;;0.60;0.40;;;25.20;58.70;;;;;;6240297;27;20116;-42
2022/08/02 09:24:15;;;;;;;0.40;0.30;;;25.30;58.80;;;;;;6203324;27;20043;-42
2022/08/02 09:27:19;;;;;;;0.32;0.30;;;25.30;58.80;;;;;;6239386;27;20046;-42
2022/08/02 09:30:21;;;;;;;0.43;0.40;;;25.20;58.70;;;;;;6232905;27;20049;-42
2022/08/02 09:33:26;;;;;;;1.65;0.57;;;25.30;58.80;;;;;;6247527;27;20051;-41
2022/08/02 09:36:38;;;;;;;0.77;0.43;;;25.40;59.00;;;;;;6245683;27;20047;-42
2022/08/02 09:39:43;;;;;;;0.45;0.45;;;25.40;59.00;;;;;;6204574;27;20039;-42
2022/08/02 09:42:58;;;;;;;1.27;0.30;;;25.40;58.90;;;;;;6202125;27;20046;-39
2022/08/02 09:46:09;;;;;;;1.27;0.30;;;25.40;59.00;;;;;;6179369;27;20047;-40
2022/08/02 09:49:12;;;;;;;3.03;0.40;;;25.30;58.90;;;;;;6222267;27;20043;-41
2022/08/02 09:52:14;;;;;;;0.20;0.20;;;25.30;58.90;;;;;;6197031;27;20053;-42
2022/08/02 09:55:16;;;;;;;0.30;0.30;;;25.40;59.00;;;;;;6182975;27;20146;-41
2022/08/02 09:58:19;;;;;;;0.20;0.20;;;25.40;59.00;;;;;;6251850;27;23027;-43
2022/08/02 10:01:30;;;;;;;0.95;0.45;;;25.30;59.00;;;;;;6238369;27;20115;-40
2022/08/02 10:04:44;;;;;;;0.93;0.30;;;25.40;59.00;;;;;;6224695;27;20051;-42
2022/08/02 10:07:54;;;;;;;1.05;0.22;;;25.30;59.50;;;;;;6228963;27;20074;-42
2022/08/02 10:11:00;;;;;;;0.40;0.30;;;25.40;59.00;;;;;;6234938;27;21677;-42
2022/08/02 10:14:04;;;;;;;0.40;0.28;;;25.40;59.10;;;;;;6215845;27;20057;-42
2022/08/02 10:17:06;;;;;;;0.32;0.30;;;25.30;59.00;;;;;;6208715;27;20089;-42
2022/08/02 10:20:08;;;;;;;1.35;0.40;;;25.40;59.10;;;;;;6219722;27;20602;-41
2022/08/02 10:23:13;;;;;;;0.30;0.25;;;25.40;59.70;;;;;;6239884;27;20047;-42
2022/08/02 10:26:17;;;;;;;0.15;0.15;;;25.30;59.00;;;;;;6224032;27;22303;-40
2022/08/02 10:29:23;;;;;;;1.75;0.30;;;25.40;59.10;;;;;;6248895;27;20031;-41
2022/08/02 10:32:29;;;;;;;0.50;0.30;;;25.30;59.00;;;;;;6219051;27;20047;-42
2022/08/02 10:35:34;;;;;;;0.30;0.22;;;25.30;58.90;;;;;;6225478;27;20045;-41
2022/08/02 10:38:36;;;;;;;0.22;0.20;;;25.50;59.10;;;;;;6240316;27;20047;-42
2022/08/02 10:41:41;;;;;;;0.20;0.20;;;25.50;59.00;;;;;;6240243;27;20131;-40
2022/08/02 10:44:43;;;;;;;0.40;0.32;;;25.50;59.10;;;;;;6240283;27;20047;-42
2022/08/02 10:48:02;;;;;;;0.40;0.40;;;25.50;59.10;;;;;;6265534;27;20521;-40
2022/08/02 10:51:03;;;;;;;0.77;0.30;;;24.60;58.50;;;;;;6230914;27;20043;-41
2022/08/02 10:54:08;;;;;;;0.60;0.47;;;25.50;59.00;;;;;;6275049;27;20366;-40
2022/08/02 10:57:17;;;;;;;0.30;0.20;;;25.50;58.90;;;;;;6275125;27;21553;-42
2022/08/02 11:00:26;;;;;;;0.52;0.40;;;25.40;58.80;;;;;;6243724;27;20045;-42
2022/08/02 11:03:40;;;;;;;0.32;0.30;;;25.50;58.80;;;;;;6243459;27;20157;-42
2022/08/02 11:07:00;;;;;;;0.30;0.30;;;25.50;58.70;;;;;;6249255;27;20037;-42
2022/08/02 11:10:25;;;;;;;0.30;0.30;;;25.50;58.70;;;;;;6265721;27;20082;-40
2022/08/02 11:13:29;;;;;;;0.30;0.30;;;25.50;58.70;;;;;;6262862;27;20035;-42
2022/08/02 11:17:01;;;;;;;0.30;0.22;;;25.50;58.60;;;;;;6256817;27;20131;-40
2022/08/02 11:20:16;;;;;;;0.85;0.43;;;25.40;58.50;;;;;;6275948;27;20161;-44
2022/08/02 11:23:34;;;;;;;1.00;0.40;;;25.50;58.60;;;;;;6278289;27;20181;-40
2022/08/02 11:26:46;;;;;;;0.63;0.38;;;25.50;58.50;;;;;;6249500;27;20049;-40
2022/08/02 11:29:48;;;;;;;1.05;0.30;;;25.50;58.50;;;;;;6259156;27;20134;-40
2022/08/02 11:32:54;;;;;;;0.45;0.38;;;25.50;58.40;;;;;;6260644;27;20918;-40
2022/08/02 11:36:00;;;;;;;0.40;0.35;;;25.50;58.40;;;;;;6238876;27;20165;-42
2022/08/02 11:39:10;;;;;;;0.40;0.40;;;25.50;58.40;;;;;;6261804;27;20064;-40
2022/08/02 11:42:12;;;;;;;0.50;0.40;;;25.50;58.30;;;;;;6245199;27;20693;-43
2022/08/02 11:45:15;;;;;;;0.50;0.30;;;25.50;58.30;;;;;;6261369;27;20138;-42
2022/08/02 11:48:32;;;;;;;0.43;0.30;;;25.50;58.30;;;;;;6260484;27;20043;-42
2022/08/02 11:51:34;;;;;;;0.30;0.30;;;25.50;58.20;;;;;;6261463;27;20043;-42
2022/08/02 11:54:39;;;;;;;0.63;0.40;;;25.60;58.20;;;;;;6235882;27;20046;-40
2022/08/02 11:57:40;;;;;;;0.52;0.40;;;25.50;58.10;;;;;;6240089;27;20046;-41
2022/08/02 12:01:02;;;;;;;;;;;25.60;58.20;;;;;;6234778;27;21084;-42
2022/08/02 12:04:05;;;;;;;0.50;0.47;;;25.50;58.10;;;;;;6208298;27;21222;-43
2022/08/02 12:07:08;;;;;;;1.17;0.50;;;25.60;58.10;;;;;;6230373;27;20043;-42
2022/08/02 12:10:12;;;;;;;0.60;0.30;;;25.70;58.10;;;;;;6228553;27;20078;-42
2022/08/02 12:13:20;;;;;;;0.35;0.30;;;25.60;58.00;;;;;;6237252;27;20122;-40
2022/08/02 12:19:36;;;;;;;0.40;0.30;;;25.60;58.00;;;;;;6212042;27;20053;-41
2022/08/02 12:22:39;;;;;;;0.30;0.20;;;25.60;57.90;;;;;;6226027;27;20039;-39
2022/08/02 12:25:43;;;;;;;0.60;0.52;;;25.50;57.70;;;;;;6223423;27;21740;-40
2022/08/02 12:28:44;;;;;;;0.30;0.30;;;25.50;57.60;;;;;;6207215;27;20177;-41
2022/08/02 12:31:47;;;;;;;1.42;0.43;;;25.60;57.60;;;;;;6239218;27;20143;-41
2022/08/02 12:35:01;;;;;;;1.15;0.52;;;25.60;57.70;;;;;;6224369;27;20909;-42
2022/08/02 12:38:10;;;;;;;0.40;0.25;;;25.50;57.50;;;;;;6218608;27;20039;-41
2022/08/02 12:41:12;;;;;;;0.35;0.30;;;25.60;57.50;;;;;;6238943;27;20045;-42
2022/08/02 12:44:38;;;;;;;0.40;0.40;;;25.60;57.40;;;;;;6257864;27;20193;-40
2022/08/02 12:47:45;;;;;;;0.50;0.30;;;25.50;57.20;;;;;;6232195;27;20046;-41
2022/08/02 12:50:46;;;;;;;0.32;0.32;;;25.60;57.10;;;;;;6222702;27;20039;-41
2022/08/02 12:53:49;;;;;;;0.20;0.20;;;25.50;56.90;;;;;;6244135;27;20039;-42
2022/08/02 12:57:10;;;;;;;0.60;0.40;;;25.60;57.50;;;;;;6234665;27;20040;-41
2022/08/02 13:00:22;;;;;;;0.30;0.20;;;25.60;56.50;;;;;;6230209;27;20073;-42
2022/08/02 13:03:24;;;;;;;0.40;0.40;;;25.40;56.20;;;;;;6215404;27;20046;-40
2022/08/02 13:06:46;;;;;;;0.20;0.20;;;25.50;55.70;;;;;;6221524;27;20043;-40
2022/08/02 13:09:49;;;;;;;0.75;0.32;;;25.60;56.20;;;;;;6249906;27;20193;-39
2022/08/02 13:12:51;;;;;;;0.63;0.20;;;25.50;56.00;;;;;;6238278;27;22150;-39
2022/08/02 13:15:56;;;;;;;0.20;0.20;;;25.40;55.90;;;;;;6236917;27;20047;-39
2022/08/02 13:19:00;;;;;;;0.20;0.20;;;25.60;56.00;;;;;;6247929;27;21027;-42
2022/08/02 13:22:01;;;;;;;0.82;0.28;;;25.50;55.80;;;;;;6250642;27;20048;-40
2022/08/02 13:25:06;;;;;;;0.20;0.20;;;25.50;55.70;;;;;;6238043;27;20047;-43
2022/08/02 13:28:08;;;;;;;1.33;0.28;;;25.50;55.60;;;;;;6236740;27;20089;-39
2022/08/02 13:31:09;;;;;;;0.43;0.25;;;25.60;55.60;;;;;;6246341;27;20173;-40
2022/08/02 13:34:31;;;;;;;0.45;0.30;;;25.50;55.50;;;;;;6203143;27;20043;-43
2022/08/02 13:37:33;;;;;;;0.60;0.28;;;25.50;55.40;;;;;;6232151;27;21408;-43
2022/08/02 13:44:06;;;;;;;0.38;0.17;;;25.50;55.40;;;;;;6223738;27;20130;-40
2022/08/02 13:47:12;;;;;;;0.20;0.20;;;25.50;55.30;;;;;;6244133;27;20323;-44
2022/08/02 13:50:13;;;;;;;0.22;0.20;;;25.50;55.40;;;;;;6225784;27;20042;-43
2022/08/02 13:53:15;;;;;;;0.22;0.22;;;25.50;55.40;;;;;;6263124;27;20074;-44
2022/08/02 13:56:17;;;;;;;0.22;0.20;;;25.60;55.40;;;;;;6242352;27;20046;-43
2022/08/02 13:59:19;;;;;;;0.60;0.30;;;25.50;55.40;;;;;;6244937;27;20047;-43
2022/08/02 14:02:40;;;;;;;0.20;0.20;;;25.60;55.60;;;;;;6220770;27;20032;-42
2022/08/02 14:05:42;;;;;;;1.23;0.30;;;25.60;55.60;;;;;;6243175;27;20110;-42
2022/08/02 14:08:50;;;;;;;0.20;0.20;;;25.60;55.50;;;;;;6235943;27;20102;-40
2022/08/02 14:11:52;;;;;;;0.17;0.13;;;25.50;55.40;;;;;;6258341;27;21003;-42
2022/08/02 14:14:54;;;;;;;1.13;0.20;;;25.50;55.40;;;;;;6253825;27;20053;-46
2022/08/02 14:17:55;;;;;;;0.30;0.20;;;25.60;55.50;;;;;;6255660;27;21380;-43
2022/08/02 14:20:58;;;;;;;0.40;0.35;;;25.60;55.50;;;;;;6238715;27;21634;-44
2022/08/02 14:24:00;;;;;;;0.47;0.20;;;25.60;55.40;;;;;;6249114;27;20047;-44
2022/08/02 14:27:02;;;;;;;0.20;0.20;;;25.50;55.40;;;;;;6251386;27;20172;-43
2022/08/02 14:30:04;;;;;;;0.13;0.13;;;25.60;55.40;;;;;;6255461;27;20349;-41
2022/08/02 14:33:05;;;;;;;0.28;0.28;;;25.60;55.10;;;;;;6231943;27;20149;-45
2022/08/02 14:36:07;;;;;;;0.30;0.30;;;25.60;55.50;;;;;;6261562;27;20213;-43
2022/08/02 14:39:09;;;;;;;0.30;0.30;;;25.60;55.40;;;;;;6258886;27;20051;-45
2022/08/02 14:42:11;;;;;;;0.40;0.20;;;25.60;55.40;;;;;;6237972;27;21579;-49
2022/08/02 14:45:14;;;;;;;0.30;0.25;;;25.60;55.40;;;;;;6259612;27;20173;-49
2022/08/02 14:48:16;;;;;;;1.05;0.50;;;25.60;55.30;;;;;;6232026;27;20201;-41
2022/08/02 14:51:18;;;;;;;0.15;0.10;;;25.60;55.30;;;;;;6251276;27;21592;-41
2022/08/02 14:54:19;;;;;;;0.30;0.30;;;25.60;55.30;;;;;;6262288;27;20037;-43
2022/08/02 14:57:21;;;;;;;0.50;0.30;;;25.50;55.30;;;;;;6236189;27;20047;-43
2022/08/02 15:00:25;;;;;;;1.48;0.30;;;25.50;55.30;;;;;;6236179;27;21021;-43
2022/08/02 15:03:30;;;;;;;0.43;0.40;;;25.60;55.40;;;;;;6250848;27;20049;-41
2022/08/02 15:06:31;;;;;;;0.32;0.20;;;25.60;55.30;;;;;;6258680;27;20043;-44
2022/08/02 15:09:33;;;;;;;0.30;0.20;;;25.70;55.40;;;;;;6257981;27;21224;-42
2022/08/02 15:12:41;;;;;;;0.70;0.20;;;25.60;55.30;;;;;;6246148;27;20039;-42
2022/08/02 15:15:45;;;;;;;0.25;0.20;;;25.70;55.40;;;;;;6237374;27;20158;-41
2022/08/02 15:18:47;;;;;;;0.22;0.20;;;25.70;55.40;;;;;;6260014;27;20039;-42
2022/08/02 15:21:49;;;;;;;0.28;0.25;;;25.60;55.30;;;;;;6248134;27;20169;-42
2022/08/02 15:24:56;;;;;;;0.13;0.13;;;25.70;55.40;;;;;;6228222;27;20218;-43
2022/08/02 15:27:58;;;;;;;0.35;0.20;;;25.80;55.50;;;;;;6226776;27;20073;-40
2022/08/02 15:30:59;;;;;;;0.30;0.20;;;25.70;55.50;;;;;;6244471;27;20723;-40
2022/08/02 15:34:01;;;;;;;0.40;0.32;;;25.70;55.50;;;;;;6241575;27;20510;-39
2022/08/02 15:37:03;;;;;;;0.30;0.30;;;25.70;55.50;;;;;;6246127;27;21396;-40
2022/08/02 15:40:06;;;;;;;0.30;0.20;;;25.70;55.50;;;;;;6252125;27;20593;-41
2022/08/02 15:43:08;;;;;;;0.20;0.20;;;25.70;55.40;;;;;;6247037;27;20764;-42
2022/08/02 15:46:10;;;;;;;0.22;0.20;;;25.60;55.30;;;;;;6239594;27;20050;-41
2022/08/02 15:49:11;;;;;;;0.30;0.20;;;25.70;56.00;;;;;;6249125;27;20050;-40
2022/08/02 15:52:13;;;;;;;0.30;0.28;;;25.70;55.30;;;;;;6244851;27;20043;-42
2022/08/02 15:55:16;;;;;;;0.28;0.28;;;25.70;55.30;;;;;;6233212;27;20295;-40
2022/08/02 15:58:18;;;;;;;1.30;0.30;;;25.90;55.50;;;;;;6237099;27;20274;-42
2022/08/02 16:01:23;;;;;;;0.20;0.20;;;25.70;55.30;;;;;;6240794;27;21159;-41
2022/08/02 16:04:25;;;;;;;0.50;0.30;;;25.90;55.40;;;;;;6231234;27;21286;-41
2022/08/02 16:07:27;;;;;;;0.22;0.20;;;25.80;56.00;;;;;;6249596;27;21131;-40
2022/08/02 16:10:28;;;;;;;0.30;0.30;;;25.70;55.30;;;;;;6260320;27;20043;-39
2022/08/02 16:16:54;;;;;;;0.52;0.30;;;25.80;55.30;;;;;;6275063;27;20067;-40
2022/08/02 16:20:00;;;;;;;0.77;0.30;;;25.80;55.30;;;;;;6269313;27;20489;-44
2022/08/02 16:23:02;;;;;;;0.20;0.20;;;25.80;55.30;;;;;;6274043;27;20900;-41